EGUW

RAF Wattisham Airport

Stowmarket, United Kingdom
METAR EGUW 191450Z 27011KT 9999 BKN039 04/M00 Q1007 BLU NOSIG
Observed Flight Rules
Jan-19 @ 14:50 UTC (37 minutes ago) Visual Flight Rules
Wind Visibility Clouds
270° at 11 knots 10,000+ meters
  • Broken at 3,900' AGL
Temperatures Readings
Current 4°C / 39°F
Dewpoint 0°C / 32°F
Humidity 75%
Altimeter 29.73" Hg
Pressure 1007 hPa
Elevation 87
METAR EGUW 191450Z 27011KT 9999 BKN039 04/M00 Q1007 BLU NOSIG
Observed Flight Rules
Jan-19 @ 14:50 UTC
(37 minutes ago)
VFR
Wind Visibility
270° at 11 knots 10,000+ meters
Clouds
  • Broken at 3,900' AGL
Temperature Dewpoint
4°C / 39°F 0°C / 32°F
Humidity Altimeter Pressure
75% 29.73" Hg 1007 hPa